Fumaça de queimadas atingiu o Sul do BR, SP e MS

22/08/2019 às 01:15
por Josélia Pegorim

Oferecimento
Entenda de onde veio e como a fumaça se espalhou pelo centro-sul do Brasil e porque o céu ficou tão escuro em São Paulo

Não foi apenas o estado de São Paulo que viu a mudança na cor do céu, do sol e das nuvens nos últimos dois dias. Os estados da Região Sul, o Mato Grosso do Sul e também áreas de Mato Grosso foram afetados pela densa nuvem de fumaça que avançou o centro-sul do Brasil. 

 

A chuva preta e o intenso escurecimento de nuvens observados na região da Grande São Paulo na tarde de 19 de agosto não ocorreu em outras áreas porque não havia umidade suficiente para a formação de nebulosidade tão densa como ocorreu na região metropolitana de São Paulo.

 

Porém, outros efeitos da fumaça foram até mais notados do que em São Paulo. Em Mato Grosso do Sul, na região de Corumbá, que fica na fronteira com a Bolívia, a restrição de visibilidade pela fumaça no aeroporto local começaram a ser informadas na manhã de 19 de agosto e prosseguia na noite do dia 21. Parte da fumaça certamente veio da grande quantidade de queimadas sobre a Bolívia e sobre o Paraguai. 

 

As frases codificadas a seguir são as informações meteorológicas emitidas de hora em hora pelos aeroportos. A sigla FU representa a fumaça. O número com quatro algarismos imediatamente do lado esquerdo da sigla FU é a visibilidade horizontal em metros, aquilo que o piloto do avião consegue enxergar a olho nu, sem ajuda de aparelhos auxiliares. A visibilidade chegou a 3500 metros às 13 horas (Brasília) de 19/8/2019.

 

Metar SBCR 19/08/2019

METAR SBCR 191100Z 20009KT (20017KMH) 7000 FEW025 20/16 Q1017

METAR SBCR 191200Z 21006KT (21011KMH) 7000 FEW030 21/15 Q1018

METAR SBCR 191300Z 20012KT (20022KMH) 7000 NSC 22/15 Q1018

METAR SBCR 191400Z 19010KT (19019KMH) 6000 NSC 23/15 Q1018

METAR SBCR 191500Z 20010KT (20019KMH) 5000 FU NSC 24/15 Q1018

SPECI SBCR 191537Z 19011KT (19020KMH) 4000 FU NSC 24/15 Q1017

METAR SBCR 191600Z 21009KT (21017KMH) 3500 FU NSC 25/15 Q1017

METAR SBCR 191700Z 20009KT (20017KMH) 3500 FU NSC 27/15 Q1016

METAR SBCR 191800Z 20008KT (20015KMH) 4000 FU NSC 28/15 Q1014

METAR SBCR 191900Z 20009KT (20017KMH) 4000 FU NSC 28/15 Q1014

METAR SBCR 192000Z 18009KT (18017KMH) 7000 NSC 28/14 Q1014

METAR SBCR 192100Z 17010KT (17019KMH) CAVOK 27/14 Q1014

 

As imagens do sol avermelhado e do céu com uma cor híbrida de cinza e marrom no Paraná são típicas da presença de grande quantidade de fumaça na atmosfera. 

 

 

Foto de Michael Poliseli, Arapongas (PR) em 18/8/19

 

 

Foto de Renato Bueno, Apucarana (PR) em 19/8/19

 

 

Foto de Maria Aparecida A. Nogueira, Fernandópolis (SP) em 19/8/19

 

 

Foto de Leila Branco, Santo André (SP)

 

 

Entenda porque o céu escureceu em São Paulo e fez o dia virar noite no meio da tarde.



Por que o céu escureceu em São Paulo em 19/8/2019?

 

 

Saiba mais sobre o céu muito escuro em São Paulo em 19/8/19

 

 

Foto de Lia Santiago, São Paulo (SP) em 19/8/19

 

 

Como a fumaça se espalhou pelo centro-sul do BR?

No começo da segunda quinzena de agosto era possível ver um extenso corredor de focos de fogo e de fumaça, de norte para sul, desde o Acre e Rondônia até o Paraguai e o norte da Argentina.  

 

Nas imagens de satélite captadas pelos satélites Terra e Aqua operados pela NASA, dos Estados Unidos, os focos de fogo aparecem como pontos vermelhos e a nuvem de fumaça é como se fosse um fino véu cinza e às vezes transparente. A resolução destas imagens não permite perceber que cada ponto vermelho é na verdade um aglomerado de focos de fogo. 

 

 

Focos de fogo na América do Sul em 15/8/2019 (Satélites Terra-Aqua/MODIS - NASA)

 

 

Entre os dias 16 e 17 de agosto, houve uma intensificação dos focos de fogo sobre o norte da Argentina, Paraguai e Bolívia provavelmente pela ação de ventos fortes e quentes sobre estas áreas. 

 

 

Focos de fogo sobre a América do Sul em 17/8/2019 (satélites Terra-Aqua/MODIS - NASA)

 

 

Veja a comparação do detalhe das duas imagens, onde o círculo amarelo destaca um grande aglomerado de focos de fogo entre o Rio Grande do Sul, o Paraguai e Argentina.

 

 

Comparação entre os focos de fogo no Paraguai nos dias 15 e 17 de agosto de 2019

 

 

Entre os dias 18 e 19 de agosto, uma frente fria avançou sobre o Sul do Brasil e chegou ao Mato Grosso do Sul e a São Paulo. Com esta frente fria vieram ventos frios e moderados de uma massa de ar de origem polar, das direções sudoeste/sul. Estes ventos começaram a predominar sobre o Sul do Brasil, o norte da Argentina e o Paraguai e mudaram a direção da pluma de fumaça que foi empurrada na direção do Paraná, de São Paulo e de Mato Grosso do Sul. 

 

 

No dia 20 de agosto ainda havia muita fumaça sobre SP, MS e Sul do BR

 

 

Fim de inverno é época de queimadas

Queimadas ocorrem todos os anos no Brasil e em diversos países da América do Sul. O fim do inverno é normalmente época de intensificação das queimadas. O início de uma queimada pode ser intencional, por ação humana, mas também por combustão espontânea. 

 

O inverno é uma estação de pouquíssima chuva para a maioria das áreas do Brasil e ao longo da estação a vegetação vai ficando cada vez mais seca. Os dias sem nuvens e secos são muito quentes no interior do Nordeste, no Norte e no Centro-Oeste, com temperaturas que podem chegar aos 40°C no fim da estação. O solo extremamente quente e seco pode pegar fogo naturalmente.

 

Os focos de fogo aumentam por ação humana efetiva, mas também de forma natural, pois a vegetação muito seca e ventos às vezes fortes espallham o fogo. As queimadas feitas pelos agricultores para a limpeza do terreno visando o plantio da nova safra de verão é uma prática que facilita o alastramento do fogo.

A próxima semana será a última de agosto e o tempo seco e quente vai predominar sobre a maior parte do Brasil.

 

Queimadas no BR aumentaram mais de 80% e  2019 em relação ao ano passado

 

 

CIDADES RELACIONADAS

São Paulo - SP

16°
min

22°
max

5mm / 90%

Brasília - DF

19°
min

35°
max

0mm / 0%

FASES DA LUA

  • Cheia
    14/09
  • Minguante
    21/09
  • Nova
    30/08
  • Crescente
    06/09

ESTAÇÕES DO ANO

  • Inverno
    21/06
  • Primavera
    23/09
  • Verão
    22/12
  • Outono
    20/03